sensor_id;sensor_type;location;lat;lon;timestamp;temperature;humidity
314;DHT22;143;51.634;7.112;2022-12-18T00:01:15;-4.60;99.90
314;DHT22;143;51.634;7.112;2022-12-18T00:03:41;-4.40;99.90
314;DHT22;143;51.634;7.112;2022-12-18T00:06:08;-4.30;99.90
314;DHT22;143;51.634;7.112;2022-12-18T00:08:34;-4.40;99.90
314;DHT22;143;51.634;7.112;2022-12-18T00:11:11;-4.30;99.90
314;DHT22;143;51.634;7.112;2022-12-18T00:13:37;-4.50;99.90
314;DHT22;143;51.634;7.112;2022-12-18T00:16:10;-4.60;99.90
314;DHT22;143;51.634;7.112;2022-12-18T00:18:36;-4.40;99.90
314;DHT22;143;51.634;7.112;2022-12-18T00:21:05;-4.30;99.90
314;DHT22;143;51.634;7.112;2022-12-18T00:23:32;-4.40;99.90
314;DHT22;143;51.634;7.112;2022-12-18T00:26:00;-4.40;99.90
314;DHT22;143;51.634;7.112;2022-12-18T00:28:26;-4.80;99.90
314;DHT22;143;51.634;7.112;2022-12-18T00:31:03;-4.80;99.90
314;DHT22;143;51.634;7.112;2022-12-18T00:33:29;-4.80;99.90
314;DHT22;143;51.634;7.112;2022-12-18T00:35:54;-4.90;99.90
314;DHT22;143;51.634;7.112;2022-12-18T00:38:25;-4.70;99.90
314;DHT22;143;51.634;7.112;2022-12-18T00:40:51;-4.80;99.90
314;DHT22;143;51.634;7.112;2022-12-18T00:43:17;-4.90;99.90
314;DHT22;143;51.634;7.112;2022-12-18T00:45:43;-4.70;99.90
314;DHT22;143;51.634;7.112;2022-12-18T00:48:09;-4.70;99.90
314;DHT22;143;51.634;7.112;2022-12-18T00:50:35;-4.70;99.90
314;DHT22;143;51.634;7.112;2022-12-18T00:53:01;-4.80;99.90
314;DHT22;143;51.634;7.112;2022-12-18T00:55:27;-4.90;99.90
314;DHT22;143;51.634;7.112;2022-12-18T00:57:55;-5.10;99.90
314;DHT22;143;51.634;7.112;2022-12-18T01:00:21;-4.70;99.90
314;DHT22;143;51.634;7.112;2022-12-18T01:02:48;-4.70;99.90
314;DHT22;143;51.634;7.112;2022-12-18T01:05:14;-4.80;99.90
314;DHT22;143;51.634;7.112;2022-12-18T01:07:40;-5.00;99.90
314;DHT22;143;51.634;7.112;2022-12-18T01:10:07;-5.10;99.90
314;DHT22;143;51.634;7.112;2022-12-18T01:12:35;-4.80;99.90
314;DHT22;143;51.634;7.112;2022-12-18T01:15:01;-5.10;99.90
314;DHT22;143;51.634;7.112;2022-12-18T01:17:27;-4.90;99.90
314;DHT22;143;51.634;7.112;2022-12-18T01:19:53;-5.20;99.90
314;DHT22;143;51.634;7.112;2022-12-18T01:22:20;-5.10;99.90
314;DHT22;143;51.634;7.112;2022-12-18T01:24:46;-4.90;99.90
314;DHT22;143;51.634;7.112;2022-12-18T01:27:12;-5.30;99.90
314;DHT22;143;51.634;7.112;2022-12-18T01:29:38;-4.90;99.90
314;DHT22;143;51.634;7.112;2022-12-18T01:32:04;-5.10;99.90
314;DHT22;143;51.634;7.112;2022-12-18T01:34:30;-5.10;99.90
314;DHT22;143;51.634;7.112;2022-12-18T01:36:56;-4.90;99.90
314;DHT22;143;51.634;7.112;2022-12-18T01:39:22;-4.80;99.90
314;DHT22;143;51.634;7.112;2022-12-18T01:41:48;-5.10;99.90
314;DHT22;143;51.634;7.112;2022-12-18T01:45:04;-4.70;99.90
314;DHT22;143;51.634;7.112;2022-12-18T01:47:38;-4.80;99.90
314;DHT22;143;51.634;7.112;2022-12-18T01:50:25;-5.00;99.90
314;DHT22;143;51.634;7.112;2022-12-18T01:53:00;-5.00;99.90
314;DHT22;143;51.634;7.112;2022-12-18T01:55:35;-4.90;99.90
314;DHT22;143;51.634;7.112;2022-12-18T01:58:02;-5.10;99.90
314;DHT22;143;51.634;7.112;2022-12-18T02:00:29;-4.80;99.90
314;DHT22;143;51.634;7.112;2022-12-18T02:02:55;-5.10;99.90
314;DHT22;143;51.634;7.112;2022-12-18T02:08:11;-5.10;99.90
314;DHT22;143;51.634;7.112;2022-12-18T02:10:58;-5.10;99.90
314;DHT22;143;51.634;7.112;2022-12-18T02:13:36;-5.10;99.90
314;DHT22;143;51.634;7.112;2022-12-18T02:16:27;-5.20;99.90
314;DHT22;143;51.634;7.112;2022-12-18T02:18:59;-5.30;99.90
314;DHT22;143;51.634;7.112;2022-12-18T02:27:13;-5.00;99.90
314;DHT22;143;51.634;7.112;2022-12-18T02:29:46;-5.20;99.90
314;DHT22;143;51.634;7.112;2022-12-18T02:32:21;-5.20;99.90
314;DHT22;143;51.634;7.112;2022-12-18T02:34:51;-5.10;99.90
314;DHT22;143;51.634;7.112;2022-12-18T02:37:18;-4.90;99.90
314;DHT22;143;51.634;7.112;2022-12-18T02:39:48;-4.70;99.90
314;DHT22;143;51.634;7.112;2022-12-18T02:42:15;-4.70;99.90
314;DHT22;143;51.634;7.112;2022-12-18T02:44:48;-4.60;99.90
314;DHT22;143;51.634;7.112;2022-12-18T02:47:16;-4.50;99.90
314;DHT22;143;51.634;7.112;2022-12-18T02:50:02;-4.70;99.90
314;DHT22;143;51.634;7.112;2022-12-18T02:52:50;-4.70;99.90
314;DHT22;143;51.634;7.112;2022-12-18T02:57:58;-4.60;99.90
314;DHT22;143;51.634;7.112;2022-12-18T03:00:34;-4.80;99.90
314;DHT22;143;51.634;7.112;2022-12-18T03:05:41;-4.80;99.90
314;DHT22;143;51.634;7.112;2022-12-18T03:08:20;-4.80;99.90
314;DHT22;143;51.634;7.112;2022-12-18T03:11:00;-4.80;99.90
314;DHT22;143;51.634;7.112;2022-12-18T03:16:07;-4.80;99.90
314;DHT22;143;51.634;7.112;2022-12-18T03:18:57;-4.80;99.90
314;DHT22;143;51.634;7.112;2022-12-18T03:21:51;-4.90;99.90
314;DHT22;143;51.634;7.112;2022-12-18T03:24:20;-5.00;99.90
314;DHT22;143;51.634;7.112;2022-12-18T03:26:51;-4.90;99.90
314;DHT22;143;51.634;7.112;2022-12-18T03:29:38;-5.00;99.90
314;DHT22;143;51.634;7.112;2022-12-18T03:32:42;-5.10;99.90
314;DHT22;143;51.634;7.112;2022-12-18T03:35:15;-5.10;99.90
314;DHT22;143;51.634;7.112;2022-12-18T03:37:43;-5.20;99.90
314;DHT22;143;51.634;7.112;2022-12-18T03:40:09;-5.10;99.90
314;DHT22;143;51.634;7.112;2022-12-18T03:43:02;-5.30;99.90
314;DHT22;143;51.634;7.112;2022-12-18T03:45:34;-5.30;99.90
314;DHT22;143;51.634;7.112;2022-12-18T03:48:09;-5.30;99.90
314;DHT22;143;51.634;7.112;2022-12-18T03:50:55;-5.30;99.90
314;DHT22;143;51.634;7.112;2022-12-18T03:53:46;-5.30;99.90
314;DHT22;143;51.634;7.112;2022-12-18T03:56:16;-5.40;99.90
314;DHT22;143;51.634;7.112;2022-12-18T03:58:44;-5.40;99.90
314;DHT22;143;51.634;7.112;2022-12-18T04:01:14;-5.00;99.90
314;DHT22;143;51.634;7.112;2022-12-18T04:03:42;-5.20;99.90
314;DHT22;143;51.634;7.112;2022-12-18T04:06:09;-5.20;99.90
314;DHT22;143;51.634;7.112;2022-12-18T04:08:36;-5.20;99.90
314;DHT22;143;51.634;7.112;2022-12-18T04:11:04;-5.10;99.90
314;DHT22;143;51.634;7.112;2022-12-18T04:13:36;-5.20;99.90
314;DHT22;143;51.634;7.112;2022-12-18T04:16:03;-5.10;99.90
314;DHT22;143;51.634;7.112;2022-12-18T04:18:29;-5.10;99.90
314;DHT22;143;51.634;7.112;2022-12-18T04:20:55;-5.20;99.90
314;DHT22;143;51.634;7.112;2022-12-18T04:23:21;-5.10;99.90
314;DHT22;143;51.634;7.112;2022-12-18T04:25:47;-5.20;99.90
314;DHT22;143;51.634;7.112;2022-12-18T04:28:13;-5.10;99.90
314;DHT22;143;51.634;7.112;2022-12-18T04:30:40;-5.10;99.90
314;DHT22;143;51.634;7.112;2022-12-18T04:33:13;-5.20;99.90
314;DHT22;143;51.634;7.112;2022-12-18T04:35:40;-5.10;99.90
314;DHT22;143;51.634;7.112;2022-12-18T04:38:07;-5.10;99.90
314;DHT22;143;51.634;7.112;2022-12-18T04:40:38;-5.20;99.90
314;DHT22;143;51.634;7.112;2022-12-18T04:43:09;-5.10;99.90
314;DHT22;143;51.634;7.112;2022-12-18T04:45:38;-5.30;99.90
314;DHT22;143;51.634;7.112;2022-12-18T04:48:06;-4.90;99.90
314;DHT22;143;51.634;7.112;2022-12-18T04:50:32;-5.20;99.90
314;DHT22;143;51.634;7.112;2022-12-18T04:52:58;-5.20;99.90
314;DHT22;143;51.634;7.112;2022-12-18T04:55:25;-5.20;99.90
314;DHT22;143;51.634;7.112;2022-12-18T04:57:52;-5.30;99.90
314;DHT22;143;51.634;7.112;2022-12-18T05:00:18;-5.30;99.90
314;DHT22;143;51.634;7.112;2022-12-18T05:02:44;-5.50;99.90
314;DHT22;143;51.634;7.112;2022-12-18T05:05:10;-5.40;99.90
314;DHT22;143;51.634;7.112;2022-12-18T05:07:37;-5.20;99.90
314;DHT22;143;51.634;7.112;2022-12-18T05:10:04;-5.40;99.90
314;DHT22;143;51.634;7.112;2022-12-18T05:12:31;-5.50;99.90
314;DHT22;143;51.634;7.112;2022-12-18T05:14:57;-5.50;99.90
314;DHT22;143;51.634;7.112;2022-12-18T05:17:24;-5.30;99.90
314;DHT22;143;51.634;7.112;2022-12-18T05:19:53;-5.60;99.90
314;DHT22;143;51.634;7.112;2022-12-18T05:22:21;-5.60;99.90
314;DHT22;143;51.634;7.112;2022-12-18T05:24:49;-5.60;99.90
314;DHT22;143;51.634;7.112;2022-12-18T05:27:15;-5.60;99.90
314;DHT22;143;51.634;7.112;2022-12-18T05:29:41;-5.60;99.90
314;DHT22;143;51.634;7.112;2022-12-18T05:32:07;-5.60;99.90
314;DHT22;143;51.634;7.112;2022-12-18T05:34:33;-5.60;99.90
314;DHT22;143;51.634;7.112;2022-12-18T05:36:59;-5.60;99.90
314;DHT22;143;51.634;7.112;2022-12-18T05:39:25;-5.60;99.90
314;DHT22;143;51.634;7.112;2022-12-18T05:41:51;-5.60;99.90
314;DHT22;143;51.634;7.112;2022-12-18T05:44:17;-5.60;99.90
314;DHT22;143;51.634;7.112;2022-12-18T05:46:43;-5.20;99.90
314;DHT22;143;51.634;7.112;2022-12-18T05:49:08;-5.40;99.90
314;DHT22;143;51.634;7.112;2022-12-18T05:51:34;-5.40;99.90
314;DHT22;143;51.634;7.112;2022-12-18T05:54:00;-5.10;99.90
314;DHT22;143;51.634;7.112;2022-12-18T05:56:26;-5.30;99.90
314;DHT22;143;51.634;7.112;2022-12-18T05:58:53;-5.20;99.90
314;DHT22;143;51.634;7.112;2022-12-18T06:01:23;-5.10;99.90
314;DHT22;143;51.634;7.112;2022-12-18T06:03:49;-5.10;99.90
314;DHT22;143;51.634;7.112;2022-12-18T06:06:22;-5.20;99.90
314;DHT22;143;51.634;7.112;2022-12-18T06:08:48;-5.10;99.90
314;DHT22;143;51.634;7.112;2022-12-18T06:11:19;-5.20;99.90
314;DHT22;143;51.634;7.112;2022-12-18T06:13:46;-5.10;99.90
314;DHT22;143;51.634;7.112;2022-12-18T06:16:12;-5.20;99.90
314;DHT22;143;51.634;7.112;2022-12-18T06:18:38;-5.10;99.90
314;DHT22;143;51.634;7.112;2022-12-18T06:21:04;-5.20;99.90
314;DHT22;143;51.634;7.112;2022-12-18T06:23:30;-5.10;99.90
314;DHT22;143;51.634;7.112;2022-12-18T06:25:56;-5.10;99.90
314;DHT22;143;51.634;7.112;2022-12-18T06:28:23;-5.20;99.90
314;DHT22;143;51.634;7.112;2022-12-18T06:30:49;-5.10;99.90
314;DHT22;143;51.634;7.112;2022-12-18T06:33:15;-5.20;99.90
314;DHT22;143;51.634;7.112;2022-12-18T06:35:42;-5.10;99.90
314;DHT22;143;51.634;7.112;2022-12-18T06:38:08;-5.20;99.90
314;DHT22;143;51.634;7.112;2022-12-18T06:40:37;-5.10;99.90
314;DHT22;143;51.634;7.112;2022-12-18T06:43:05;-5.10;99.90
314;DHT22;143;51.634;7.112;2022-12-18T06:45:31;-5.10;99.90
314;DHT22;143;51.634;7.112;2022-12-18T06:47:57;-5.30;99.90
314;DHT22;143;51.634;7.112;2022-12-18T06:50:23;-4.90;99.90
314;DHT22;143;51.634;7.112;2022-12-18T06:52:49;-5.20;99.90
314;DHT22;143;51.634;7.112;2022-12-18T06:55:15;-5.30;99.90
314;DHT22;143;51.634;7.112;2022-12-18T06:57:40;-5.50;99.90
314;DHT22;143;51.634;7.112;2022-12-18T07:00:07;-5.40;99.90
314;DHT22;143;51.634;7.112;2022-12-18T07:02:33;-5.50;99.90
314;DHT22;143;51.634;7.112;2022-12-18T07:04:59;-5.40;99.90
314;DHT22;143;51.634;7.112;2022-12-18T07:07:24;-5.50;99.90
314;DHT22;143;51.634;7.112;2022-12-18T07:09:50;-5.40;99.90
314;DHT22;143;51.634;7.112;2022-12-18T07:12:16;-5.40;99.90
314;DHT22;143;51.634;7.112;2022-12-18T07:14:42;-5.50;99.90
314;DHT22;143;51.634;7.112;2022-12-18T07:17:08;-5.40;99.90
314;DHT22;143;51.634;7.112;2022-12-18T07:19:34;-5.50;99.90
314;DHT22;143;51.634;7.112;2022-12-18T07:22:00;-5.30;99.90
314;DHT22;143;51.634;7.112;2022-12-18T07:24:26;-5.50;99.90
314;DHT22;143;51.634;7.112;2022-12-18T07:26:52;-5.40;99.90
314;DHT22;143;51.634;7.112;2022-12-18T07:29:18;-5.20;99.90
314;DHT22;143;51.634;7.112;2022-12-18T07:31:44;-5.40;99.90
314;DHT22;143;51.634;7.112;2022-12-18T07:34:13;-5.50;99.90
314;DHT22;143;51.634;7.112;2022-12-18T07:36:39;-5.40;99.90
314;DHT22;143;51.634;7.112;2022-12-18T07:39:05;-5.20;99.90
314;DHT22;143;51.634;7.112;2022-12-18T07:41:31;-5.40;99.90
314;DHT22;143;51.634;7.112;2022-12-18T07:43:56;-5.20;99.90
314;DHT22;143;51.634;7.112;2022-12-18T07:46:22;-5.40;99.90
314;DHT22;143;51.634;7.112;2022-12-18T07:48:48;-5.20;99.90
314;DHT22;143;51.634;7.112;2022-12-18T07:51:14;-5.30;99.90
314;DHT22;143;51.634;7.112;2022-12-18T07:53:40;-5.00;99.90
314;DHT22;143;51.634;7.112;2022-12-18T07:56:09;-5.20;99.90
314;DHT22;143;51.634;7.112;2022-12-18T07:58:36;-5.30;99.90
314;DHT22;143;51.634;7.112;2022-12-18T08:01:11;-5.10;99.90
314;DHT22;143;51.634;7.112;2022-12-18T08:03:37;-4.80;99.90
314;DHT22;143;51.634;7.112;2022-12-18T08:06:05;-4.90;99.90
314;DHT22;143;51.634;7.112;2022-12-18T08:08:33;-4.80;99.90
314;DHT22;143;51.634;7.112;2022-12-18T08:10:59;-4.60;99.90
314;DHT22;143;51.634;7.112;2022-12-18T08:13:25;-4.30;99.90
314;DHT22;143;51.634;7.112;2022-12-18T08:15:58;-4.40;99.90
314;DHT22;143;51.634;7.112;2022-12-18T08:18:24;-4.20;99.90
314;DHT22;143;51.634;7.112;2022-12-18T08:20:50;-4.00;99.90
314;DHT22;143;51.634;7.112;2022-12-18T08:23:16;-3.70;99.90
314;DHT22;143;51.634;7.112;2022-12-18T08:25:42;-3.50;99.90
314;DHT22;143;51.634;7.112;2022-12-18T08:28:07;-3.30;99.90
314;DHT22;143;51.634;7.112;2022-12-18T08:30:33;-3.30;99.90
314;DHT22;143;51.634;7.112;2022-12-18T08:32:59;-3.10;99.90
314;DHT22;143;51.634;7.112;2022-12-18T08:35:24;-2.90;99.90
314;DHT22;143;51.634;7.112;2022-12-18T08:37:50;-3.00;99.90
314;DHT22;143;51.634;7.112;2022-12-18T08:40:16;-2.90;99.90
314;DHT22;143;51.634;7.112;2022-12-18T08:42:41;-2.80;99.90
314;DHT22;143;51.634;7.112;2022-12-18T08:45:25;-2.80;99.90
314;DHT22;143;51.634;7.112;2022-12-18T08:47:51;-2.40;99.90
314;DHT22;143;51.634;7.112;2022-12-18T08:50:17;-2.40;99.90
314;DHT22;143;51.634;7.112;2022-12-18T08:52:43;-2.00;99.90
314;DHT22;143;51.634;7.112;2022-12-18T08:55:09;-1.80;99.90
314;DHT22;143;51.634;7.112;2022-12-18T08:57:35;-1.60;99.90
314;DHT22;143;51.634;7.112;2022-12-18T09:00:00;-1.30;99.90
314;DHT22;143;51.634;7.112;2022-12-18T09:02:26;-1.50;99.90
314;DHT22;143;51.634;7.112;2022-12-18T09:04:52;-1.00;99.90
314;DHT22;143;51.634;7.112;2022-12-18T09:07:17;-0.70;99.90
314;DHT22;143;51.634;7.112;2022-12-18T09:09:43;-0.40;99.90
314;DHT22;143;51.634;7.112;2022-12-18T09:12:09;-0.20;99.90
314;DHT22;143;51.634;7.112;2022-12-18T09:14:35;0.00;99.90
314;DHT22;143;51.634;7.112;2022-12-18T09:17:01;0.20;99.90
314;DHT22;143;51.634;7.112;2022-12-18T09:19:27;0.50;99.90
314;DHT22;143;51.634;7.112;2022-12-18T09:21:52;0.40;99.90
314;DHT22;143;51.634;7.112;2022-12-18T09:24:18;0.60;99.90
314;DHT22;143;51.634;7.112;2022-12-18T09:26:44;0.80;99.90
314;DHT22;143;51.634;7.112;2022-12-18T09:29:10;1.00;99.90
314;DHT22;143;51.634;7.112;2022-12-18T09:31:36;1.30;99.90
314;DHT22;143;51.634;7.112;2022-12-18T09:34:02;1.20;99.90
314;DHT22;143;51.634;7.112;2022-12-18T09:36:27;1.30;99.90
314;DHT22;143;51.634;7.112;2022-12-18T09:38:53;1.50;99.90
314;DHT22;143;51.634;7.112;2022-12-18T09:44:09;2.30;99.90
314;DHT22;143;51.634;7.112;2022-12-18T09:46:41;2.60;99.90
314;DHT22;143;51.634;7.112;2022-12-18T09:49:14;3.00;99.90
314;DHT22;143;51.634;7.112;2022-12-18T09:51:45;3.20;99.90
314;DHT22;143;51.634;7.112;2022-12-18T09:54:30;3.50;99.90
314;DHT22;143;51.634;7.112;2022-12-18T09:56:58;4.00;99.90
314;DHT22;143;51.634;7.112;2022-12-18T09:59:26;4.20;91.30
314;DHT22;143;51.634;7.112;2022-12-18T10:01:55;4.30;45.80
314;DHT22;143;51.634;7.112;2022-12-18T10:04:21;4.70;11.50
314;DHT22;143;51.634;7.112;2022-12-18T10:07:05;4.80;1.00
314;DHT22;143;51.634;7.112;2022-12-18T10:09:43;5.00;1.00
314;DHT22;143;51.634;7.112;2022-12-18T10:12:47;5.20;1.00
314;DHT22;143;51.634;7.112;2022-12-18T10:27:24;5.20;1.00
314;DHT22;143;51.634;7.112;2022-12-18T10:29:55;5.00;1.00
314;DHT22;143;51.634;7.112;2022-12-18T10:32:28;5.10;1.00
314;DHT22;143;51.634;7.112;2022-12-18T10:34:59;4.80;1.00
314;DHT22;143;51.634;7.112;2022-12-18T10:37:29;4.80;1.00
314;DHT22;143;51.634;7.112;2022-12-18T10:40:16;4.70;1.00
314;DHT22;143;51.634;7.112;2022-12-18T10:42:45;4.40;1.00
314;DHT22;143;51.634;7.112;2022-12-18T10:45:15;4.70;1.00
314;DHT22;143;51.634;7.112;2022-12-18T10:47:47;4.60;1.00
314;DHT22;143;51.634;7.112;2022-12-18T10:50:34;4.40;1.00
314;DHT22;143;51.634;7.112;2022-12-18T10:53:13;4.40;1.00
314;DHT22;143;51.634;7.112;2022-12-18T10:55:46;4.10;1.00
314;DHT22;143;51.634;7.112;2022-12-18T10:58:24;4.40;1.00
314;DHT22;143;51.634;7.112;2022-12-18T11:01:19;4.10;1.00
314;DHT22;143;51.634;7.112;2022-12-18T11:04:08;4.40;1.00
314;DHT22;143;51.634;7.112;2022-12-18T11:07:10;4.50;1.00
314;DHT22;143;51.634;7.112;2022-12-18T11:09:38;4.30;1.00
314;DHT22;143;51.634;7.112;2022-12-18T11:14:52;3.90;1.00
314;DHT22;143;51.634;7.112;2022-12-18T11:20:03;3.50;1.00
314;DHT22;143;51.634;7.112;2022-12-18T11:22:35;3.60;1.00
314;DHT22;143;51.634;7.112;2022-12-18T11:25:23;3.30;1.00
314;DHT22;143;51.634;7.112;2022-12-18T11:27:58;3.20;1.00
314;DHT22;143;51.634;7.112;2022-12-18T11:41:16;2.80;1.00
314;DHT22;143;51.634;7.112;2022-12-18T11:44:01;2.60;1.00
314;DHT22;143;51.634;7.112;2022-12-18T11:46:41;2.70;1.00
314;DHT22;143;51.634;7.112;2022-12-18T11:49:13;2.40;1.00
314;DHT22;143;51.634;7.112;2022-12-18T11:51:54;2.60;1.00
314;DHT22;143;51.634;7.112;2022-12-18T11:54:21;2.50;1.00
314;DHT22;143;51.634;7.112;2022-12-18T12:02:21;2.50;1.00
314;DHT22;143;51.634;7.112;2022-12-18T12:12:57;2.50;1.00
314;DHT22;143;51.634;7.112;2022-12-18T12:27:04;2.60;1.00
314;DHT22;143;51.634;7.112;2022-12-18T12:39:56;2.40;1.00
314;DHT22;143;51.634;7.112;2022-12-18T12:42:38;2.40;1.00
314;DHT22;143;51.634;7.112;2022-12-18T12:45:34;2.40;1.00
314;DHT22;143;51.634;7.112;2022-12-18T12:48:02;2.40;1.00
314;DHT22;143;51.634;7.112;2022-12-18T12:50:33;2.40;1.00
314;DHT22;143;51.634;7.112;2022-12-18T12:53:01;2.20;1.00
314;DHT22;143;51.634;7.112;2022-12-18T12:55:31;2.00;1.00
314;DHT22;143;51.634;7.112;2022-12-18T12:58:18;2.00;1.00
314;DHT22;143;51.634;7.112;2022-12-18T13:03:39;2.20;1.00
314;DHT22;143;51.634;7.112;2022-12-18T13:06:33;2.20;1.00
314;DHT22;143;51.634;7.112;2022-12-18T13:09:01;2.10;1.00
314;DHT22;143;51.634;7.112;2022-12-18T13:14:26;2.20;1.00
314;DHT22;143;51.634;7.112;2022-12-18T13:16:56;2.20;1.00
314;DHT22;143;51.634;7.112;2022-12-18T13:19:38;2.20;1.00
314;DHT22;143;51.634;7.112;2022-12-18T13:22:03;2.20;1.00
314;DHT22;143;51.634;7.112;2022-12-18T13:24:31;2.20;1.00
314;DHT22;143;51.634;7.112;2022-12-18T13:26:56;2.30;1.00
314;DHT22;143;51.634;7.112;2022-12-18T13:29:45;2.20;1.00
314;DHT22;143;51.634;7.112;2022-12-18T13:32:23;2.20;1.00
314;DHT22;143;51.634;7.112;2022-12-18T13:37:54;2.20;1.00
314;DHT22;143;51.634;7.112;2022-12-18T13:46:06;2.20;19.40
314;DHT22;143;51.634;7.112;2022-12-18T13:48:53;2.20;32.20
314;DHT22;143;51.634;7.112;2022-12-18T13:51:21;2.20;42.50
314;DHT22;143;51.634;7.112;2022-12-18T13:56:28;2.10;50.90
314;DHT22;143;51.634;7.112;2022-12-18T13:59:23;2.20;44.20
314;DHT22;143;51.634;7.112;2022-12-18T14:04:37;2.20;45.10
314;DHT22;143;51.634;7.112;2022-12-18T14:07:06;2.00;60.20
314;DHT22;143;51.634;7.112;2022-12-18T14:09:41;1.90;65.80
314;DHT22;143;51.634;7.112;2022-12-18T14:12:20;2.20;74.10
314;DHT22;143;51.634;7.112;2022-12-18T14:15:41;2.20;90.80
314;DHT22;143;51.634;7.112;2022-12-18T14:18:01;2.10;99.90
314;DHT22;143;51.634;7.112;2022-12-18T14:20:30;1.90;99.90
314;DHT22;143;51.634;7.112;2022-12-18T14:22:58;1.90;99.90
314;DHT22;143;51.634;7.112;2022-12-18T14:25:26;1.90;99.90
314;DHT22;143;51.634;7.112;2022-12-18T14:30:42;2.00;99.90
314;DHT22;143;51.634;7.112;2022-12-18T14:36:01;2.00;99.90
314;DHT22;143;51.634;7.112;2022-12-18T14:38:36;2.20;99.90
314;DHT22;143;51.634;7.112;2022-12-18T14:43:38;1.90;99.90
314;DHT22;143;51.634;7.112;2022-12-18T14:46:06;2.00;99.90
314;DHT22;143;51.634;7.112;2022-12-18T14:48:51;2.10;99.90
314;DHT22;143;51.634;7.112;2022-12-18T14:51:25;1.70;99.90
314;DHT22;143;51.634;7.112;2022-12-18T14:58:51;1.80;99.90
314;DHT22;143;51.634;7.112;2022-12-18T15:01:20;1.50;99.90
314;DHT22;143;51.634;7.112;2022-12-18T15:03:46;1.40;99.90
314;DHT22;143;51.634;7.112;2022-12-18T15:06:24;1.50;99.90
314;DHT22;143;51.634;7.112;2022-12-18T15:08:51;1.70;99.90
314;DHT22;143;51.634;7.112;2022-12-18T15:11:48;1.50;99.90
314;DHT22;143;51.634;7.112;2022-12-18T15:14:22;1.90;99.90
314;DHT22;143;51.634;7.112;2022-12-18T15:16:55;1.80;99.90
314;DHT22;143;51.634;7.112;2022-12-18T15:19:23;1.70;99.90
314;DHT22;143;51.634;7.112;2022-12-18T15:21:51;1.70;99.90
314;DHT22;143;51.634;7.112;2022-12-18T15:24:27;1.70;99.90
314;DHT22;143;51.634;7.112;2022-12-18T15:26:54;1.70;99.90
314;DHT22;143;51.634;7.112;2022-12-18T15:29:22;1.60;99.90
314;DHT22;143;51.634;7.112;2022-12-18T15:32:02;1.60;99.90
314;DHT22;143;51.634;7.112;2022-12-18T15:34:28;1.60;99.90
314;DHT22;143;51.634;7.112;2022-12-18T15:36:54;1.70;99.90
314;DHT22;143;51.634;7.112;2022-12-18T15:39:20;1.70;99.90
314;DHT22;143;51.634;7.112;2022-12-18T15:41:46;2.00;99.90
314;DHT22;143;51.634;7.112;2022-12-18T15:44:30;2.00;99.90
314;DHT22;143;51.634;7.112;2022-12-18T15:46:56;1.70;99.90
314;DHT22;143;51.634;7.112;2022-12-18T15:49:22;1.90;99.90
314;DHT22;143;51.634;7.112;2022-12-18T15:51:52;1.70;99.90
314;DHT22;143;51.634;7.112;2022-12-18T15:54:19;2.00;99.90
314;DHT22;143;51.634;7.112;2022-12-18T15:57:09;1.70;99.90
314;DHT22;143;51.634;7.112;2022-12-18T15:59:52;1.70;99.30
314;DHT22;143;51.634;7.112;2022-12-18T16:02:19;1.50;92.00
314;DHT22;143;51.634;7.112;2022-12-18T16:04:45;1.40;75.40
314;DHT22;143;51.634;7.112;2022-12-18T16:07:13;1.60;54.50
314;DHT22;143;51.634;7.112;2022-12-18T16:09:39;1.40;46.80
314;DHT22;143;51.634;7.112;2022-12-18T16:12:06;1.50;33.20
314;DHT22;143;51.634;7.112;2022-12-18T16:14:36;1.50;23.80
314;DHT22;143;51.634;7.112;2022-12-18T16:17:06;1.50;25.50
314;DHT22;143;51.634;7.112;2022-12-18T16:19:34;1.60;11.60
314;DHT22;143;51.634;7.112;2022-12-18T16:21:59;1.50;1.00
314;DHT22;143;51.634;7.112;2022-12-18T16:24:31;1.40;1.00
314;DHT22;143;51.634;7.112;2022-12-18T16:26:58;1.50;1.00
314;DHT22;143;51.634;7.112;2022-12-18T16:29:25;1.50;1.00
314;DHT22;143;51.634;7.112;2022-12-18T16:31:59;1.40;1.00
314;DHT22;143;51.634;7.112;2022-12-18T16:34:28;1.50;1.00
314;DHT22;143;51.634;7.112;2022-12-18T16:36:56;1.40;1.00
314;DHT22;143;51.634;7.112;2022-12-18T16:39:22;1.50;1.00
314;DHT22;143;51.634;7.112;2022-12-18T16:41:48;1.50;1.00
314;DHT22;143;51.634;7.112;2022-12-18T16:44:14;1.50;1.00
314;DHT22;143;51.634;7.112;2022-12-18T16:46:40;1.50;1.00
314;DHT22;143;51.634;7.112;2022-12-18T16:49:09;1.40;1.00
314;DHT22;143;51.634;7.112;2022-12-18T16:51:35;1.40;1.00
314;DHT22;143;51.634;7.112;2022-12-18T16:54:01;1.60;1.00
314;DHT22;143;51.634;7.112;2022-12-18T16:56:27;1.70;1.00
314;DHT22;143;51.634;7.112;2022-12-18T16:58:54;1.70;1.00
314;DHT22;143;51.634;7.112;2022-12-18T17:01:20;1.70;1.00
314;DHT22;143;51.634;7.112;2022-12-18T17:03:54;1.50;1.00
314;DHT22;143;51.634;7.112;2022-12-18T17:06:21;1.50;1.00
314;DHT22;143;51.634;7.112;2022-12-18T17:08:47;1.50;1.00
314;DHT22;143;51.634;7.112;2022-12-18T17:11:14;1.50;1.00
314;DHT22;143;51.634;7.112;2022-12-18T17:13:39;1.50;1.00
314;DHT22;143;51.634;7.112;2022-12-18T17:16:06;1.70;1.00
314;DHT22;143;51.634;7.112;2022-12-18T17:18:33;1.70;1.00
314;DHT22;143;51.634;7.112;2022-12-18T17:21:00;1.50;1.00
314;DHT22;143;51.634;7.112;2022-12-18T17:23:27;1.60;1.00
314;DHT22;143;51.634;7.112;2022-12-18T17:25:54;1.60;1.00
314;DHT22;143;51.634;7.112;2022-12-18T17:28:22;1.70;1.00
314;DHT22;143;51.634;7.112;2022-12-18T17:30:47;1.60;1.00
314;DHT22;143;51.634;7.112;2022-12-18T17:33:13;1.80;10.10
314;DHT22;143;51.634;7.112;2022-12-18T17:35:39;1.60;20.70
314;DHT22;143;51.634;7.112;2022-12-18T17:38:05;1.60;29.60
314;DHT22;143;51.634;7.112;2022-12-18T17:40:32;1.70;44.40
314;DHT22;143;51.634;7.112;2022-12-18T17:42:57;1.60;54.90
314;DHT22;143;51.634;7.112;2022-12-18T17:45:24;1.80;64.50
314;DHT22;143;51.634;7.112;2022-12-18T17:47:50;1.80;73.30
314;DHT22;143;51.634;7.112;2022-12-18T17:50:16;1.80;86.00
314;DHT22;143;51.634;7.112;2022-12-18T17:52:41;1.70;94.00
314;DHT22;143;51.634;7.112;2022-12-18T17:55:08;1.80;99.00
314;DHT22;143;51.634;7.112;2022-12-18T17:57:34;1.50;99.90
314;DHT22;143;51.634;7.112;2022-12-18T18:00:01;1.50;99.90
314;DHT22;143;51.634;7.112;2022-12-18T18:02:28;1.50;99.90
314;DHT22;143;51.634;7.112;2022-12-18T18:04:53;1.50;99.90
314;DHT22;143;51.634;7.112;2022-12-18T18:07:19;1.40;99.90
314;DHT22;143;51.634;7.112;2022-12-18T18:09:45;1.40;99.90
314;DHT22;143;51.634;7.112;2022-12-18T18:12:11;1.40;99.90
314;DHT22;143;51.634;7.112;2022-12-18T18:14:55;1.40;99.90
314;DHT22;143;51.634;7.112;2022-12-18T18:17:21;1.50;99.90
314;DHT22;143;51.634;7.112;2022-12-18T18:19:47;1.50;99.90
314;DHT22;143;51.634;7.112;2022-12-18T18:22:12;1.40;99.90
314;DHT22;143;51.634;7.112;2022-12-18T18:24:38;1.40;99.90
314;DHT22;143;51.634;7.112;2022-12-18T18:27:04;1.50;99.90
314;DHT22;143;51.634;7.112;2022-12-18T18:29:29;1.50;99.90
314;DHT22;143;51.634;7.112;2022-12-18T18:31:55;1.40;99.90
314;DHT22;143;51.634;7.112;2022-12-18T18:34:23;1.50;99.90
314;DHT22;143;51.634;7.112;2022-12-18T18:36:49;1.40;99.90
314;DHT22;143;51.634;7.112;2022-12-18T18:39:15;1.50;99.90
314;DHT22;143;51.634;7.112;2022-12-18T18:41:41;1.40;99.90
314;DHT22;143;51.634;7.112;2022-12-18T18:44:08;1.50;99.90
314;DHT22;143;51.634;7.112;2022-12-18T18:46:34;1.40;99.90
314;DHT22;143;51.634;7.112;2022-12-18T18:48:59;1.40;99.90
314;DHT22;143;51.634;7.112;2022-12-18T18:51:25;1.40;99.90
314;DHT22;143;51.634;7.112;2022-12-18T18:53:52;1.50;99.90
314;DHT22;143;51.634;7.112;2022-12-18T18:56:22;1.50;99.90
314;DHT22;143;51.634;7.112;2022-12-18T18:58:48;1.50;99.90
314;DHT22;143;51.634;7.112;2022-12-18T19:01:18;1.40;99.90